sensor_id;sensor_type;location;lat;lon;timestamp;pressure;altitude;pressure_sealevel;temperature;humidity
12146;BME280;6136;47.032;15.398;2024-03-22T00:01:54;97946.63;;;9.81;100.00
12146;BME280;6136;47.032;15.398;2024-03-22T00:04:22;97947.88;;;9.73;100.00
12146;BME280;6136;47.032;15.398;2024-03-22T00:06:50;97941.81;;;9.71;100.00
12146;BME280;6136;47.032;15.398;2024-03-22T00:09:17;97945.72;;;9.64;100.00
12146;BME280;6136;47.032;15.398;2024-03-22T00:11:44;97939.75;;;9.61;100.00
12146;BME280;6136;47.032;15.398;2024-03-22T00:14:11;97945.38;;;9.55;100.00
12146;BME280;6136;47.032;15.398;2024-03-22T00:16:38;97947.84;;;9.58;100.00
12146;BME280;6136;47.032;15.398;2024-03-22T00:19:05;97941.69;;;9.57;100.00
12146;BME280;6136;47.032;15.398;2024-03-22T00:21:31;97942.31;;;9.62;100.00
12146;BME280;6136;47.032;15.398;2024-03-22T00:24:00;97940.59;;;9.61;100.00
12146;BME280;6136;47.032;15.398;2024-03-22T00:26:27;97952.03;;;9.62;100.00
12146;BME280;6136;47.032;15.398;2024-03-22T00:28:55;97947.59;;;9.62;100.00
12146;BME280;6136;47.032;15.398;2024-03-22T00:31:23;97950.06;;;9.65;100.00
12146;BME280;6136;47.032;15.398;2024-03-22T00:33:51;97951.66;;;9.69;100.00
12146;BME280;6136;47.032;15.398;2024-03-22T00:36:17;97946.34;;;9.69;100.00
12146;BME280;6136;47.032;15.398;2024-03-22T00:38:44;97947.28;;;9.68;100.00
12146;BME280;6136;47.032;15.398;2024-03-22T00:41:12;97945.56;;;9.67;100.00
12146;BME280;6136;47.032;15.398;2024-03-22T00:43:39;97943.84;;;9.66;100.00
12146;BME280;6136;47.032;15.398;2024-03-22T00:46:05;97946.44;;;9.68;100.00
12146;BME280;6136;47.032;15.398;2024-03-22T00:48:33;97956.16;;;9.67;100.00
12146;BME280;6136;47.032;15.398;2024-03-22T00:51:01;97958.66;;;9.70;100.00
12146;BME280;6136;47.032;15.398;2024-03-22T00:53:29;97960.66;;;9.65;100.00
12146;BME280;6136;47.032;15.398;2024-03-22T00:55:55;97959.59;;;9.69;100.00
12146;BME280;6136;47.032;15.398;2024-03-22T00:58:27;97956.09;;;9.69;100.00
12146;BME280;6136;47.032;15.398;2024-03-22T01:00:53;97957.09;;;9.66;100.00
12146;BME280;6136;47.032;15.398;2024-03-22T01:03:21;97955.44;;;9.64;100.00
12146;BME280;6136;47.032;15.398;2024-03-22T01:05:47;97955.38;;;9.65;100.00
12146;BME280;6136;47.032;15.398;2024-03-22T01:08:14;97961.53;;;9.66;100.00
12146;BME280;6136;47.032;15.398;2024-03-22T01:10:41;97960.84;;;9.62;100.00
12146;BME280;6136;47.032;15.398;2024-03-22T01:13:08;97960.84;;;9.62;100.00
12146;BME280;6136;47.032;15.398;2024-03-22T01:15:36;97956.22;;;9.66;100.00
12146;BME280;6136;47.032;15.398;2024-03-22T01:18:04;97950.25;;;9.62;100.00
12146;BME280;6136;47.032;15.398;2024-03-22T01:20:30;97943.31;;;9.60;100.00
12146;BME280;6136;47.032;15.398;2024-03-22T01:22:59;97949.28;;;9.63;100.00
12146;BME280;6136;47.032;15.398;2024-03-22T01:25:25;97960.06;;;9.60;100.00
12146;BME280;6136;47.032;15.398;2024-03-22T01:27:52;97945.03;;;9.61;100.00
12146;BME280;6136;47.032;15.398;2024-03-22T01:30:19;97952.03;;;9.62;100.00
12146;BME280;6136;47.032;15.398;2024-03-22T01:32:47;97951.19;;;9.61;100.00
12146;BME280;6136;47.032;15.398;2024-03-22T01:35:13;97959.34;;;9.57;100.00
12146;BME280;6136;47.032;15.398;2024-03-22T01:37:41;97957.41;;;9.60;100.00
12146;BME280;6136;47.032;15.398;2024-03-22T01:40:08;97953.13;;;9.58;100.00
12146;BME280;6136;47.032;15.398;2024-03-22T01:42:35;97953.97;;;9.58;100.00
12146;BME280;6136;47.032;15.398;2024-03-22T01:45:02;97948.69;;;9.58;100.00
12146;BME280;6136;47.032;15.398;2024-03-22T01:47:29;97952.91;;;9.62;100.00
12146;BME280;6136;47.032;15.398;2024-03-22T01:49:57;97942.63;;;9.56;100.00
12146;BME280;6136;47.032;15.398;2024-03-22T01:52:25;97953.38;;;9.53;100.00
12146;BME280;6136;47.032;15.398;2024-03-22T01:54:51;97947.22;;;9.53;100.00
12146;BME280;6136;47.032;15.398;2024-03-22T01:57:19;97946.22;;;9.55;100.00
12146;BME280;6136;47.032;15.398;2024-03-22T01:59:46;97941.69;;;9.57;100.00
12146;BME280;6136;47.032;15.398;2024-03-22T02:02:16;97945.25;;;9.56;100.00
12146;BME280;6136;47.032;15.398;2024-03-22T02:04:43;97950.56;;;9.56;100.00
12146;BME280;6136;47.032;15.398;2024-03-22T02:07:11;97939.03;;;9.57;100.00
12146;BME280;6136;47.032;15.398;2024-03-22T02:09:37;97939.22;;;9.54;100.00
12146;BME280;6136;47.032;15.398;2024-03-22T02:12:05;97933.94;;;9.54;100.00
12146;BME280;6136;47.032;15.398;2024-03-22T02:14:31;97941.84;;;9.54;100.00
12146;BME280;6136;47.032;15.398;2024-03-22T02:16:59;97932.88;;;9.57;100.00
12146;BME280;6136;47.032;15.398;2024-03-22T02:19:25;97925.81;;;9.57;100.00
12146;BME280;6136;47.032;15.398;2024-03-22T02:21:52;97926.00;;;9.54;100.00
12146;BME280;6136;47.032;15.398;2024-03-22T02:24:20;97926.66;;;9.58;100.00
12146;BME280;6136;47.032;15.398;2024-03-22T02:26:47;97926.59;;;9.59;100.00
12146;BME280;6136;47.032;15.398;2024-03-22T02:29:13;97938.81;;;9.62;100.00
12146;BME280;6136;47.032;15.398;2024-03-22T02:31:40;97926.97;;;9.69;100.00
12146;BME280;6136;47.032;15.398;2024-03-22T02:34:07;97930.22;;;9.74;100.00
12146;BME280;6136;47.032;15.398;2024-03-22T02:36:34;97932.78;;;9.76;100.00
12146;BME280;6136;47.032;15.398;2024-03-22T02:39:00;97934.50;;;9.77;98.25
12146;BME280;6136;47.032;15.398;2024-03-22T02:41:28;97934.31;;;9.80;97.04
12146;BME280;6136;47.032;15.398;2024-03-22T02:43:55;97932.31;;;9.85;95.67
12146;BME280;6136;47.032;15.398;2024-03-22T02:46:22;97933.75;;;9.90;94.39
12146;BME280;6136;47.032;15.398;2024-03-22T02:48:48;97933.69;;;9.92;93.49
12146;BME280;6136;47.032;15.398;2024-03-22T02:51:15;97934.63;;;9.91;93.12
12146;BME280;6136;47.032;15.398;2024-03-22T02:53:41;97937.09;;;9.94;91.92
12146;BME280;6136;47.032;15.398;2024-03-22T02:56:09;97929.94;;;9.96;92.26
12146;BME280;6136;47.032;15.398;2024-03-22T02:58:36;97930.97;;;10.09;88.22
12146;BME280;6136;47.032;15.398;2024-03-22T03:01:04;97930.03;;;10.10;88.75
12146;BME280;6136;47.032;15.398;2024-03-22T03:03:31;97924.72;;;10.10;89.47
12146;BME280;6136;47.032;15.398;2024-03-22T03:05:59;97926.38;;;10.12;88.05
12146;BME280;6136;47.032;15.398;2024-03-22T03:08:25;97926.44;;;10.11;88.05
12146;BME280;6136;47.032;15.398;2024-03-22T03:10:52;97922.09;;;10.10;87.75
12146;BME280;6136;47.032;15.398;2024-03-22T03:13:18;97923.81;;;10.11;86.36
12146;BME280;6136;47.032;15.398;2024-03-22T03:15:47;97911.34;;;10.13;87.01
12146;BME280;6136;47.032;15.398;2024-03-22T03:18:13;97911.34;;;10.13;85.85
12146;BME280;6136;47.032;15.398;2024-03-22T03:20:40;97915.06;;;10.09;86.54
12146;BME280;6136;47.032;15.398;2024-03-22T03:23:07;97909.09;;;10.05;86.56
12146;BME280;6136;47.032;15.398;2024-03-22T03:25:34;97915.59;;;10.00;86.38
12146;BME280;6136;47.032;15.398;2024-03-22T03:28:00;97905.31;;;9.94;87.02
12146;BME280;6136;47.032;15.398;2024-03-22T03:30:27;97909.94;;;9.90;87.68
12146;BME280;6136;47.032;15.398;2024-03-22T03:32:55;97916.16;;;9.89;87.22
12146;BME280;6136;47.032;15.398;2024-03-22T03:35:22;97920.69;;;9.87;87.02
12146;BME280;6136;47.032;15.398;2024-03-22T03:37:49;97921.09;;;9.80;88.03
12146;BME280;6136;47.032;15.398;2024-03-22T03:40:16;97916.38;;;9.69;88.48
12146;BME280;6136;47.032;15.398;2024-03-22T03:42:42;97915.16;;;9.59;90.45
12146;BME280;6136;47.032;15.398;2024-03-22T03:45:10;97914.63;;;9.52;91.17
12146;BME280;6136;47.032;15.398;2024-03-22T03:47:36;97918.38;;;9.48;90.29
12146;BME280;6136;47.032;15.398;2024-03-22T03:50:05;97919.38;;;9.46;90.86
12146;BME280;6136;47.032;15.398;2024-03-22T03:52:31;97916.13;;;9.41;91.34
12146;BME280;6136;47.032;15.398;2024-03-22T03:54:58;97912.78;;;9.37;91.33
12146;BME280;6136;47.032;15.398;2024-03-22T03:57:25;97920.25;;;9.29;94.01
12146;BME280;6136;47.032;15.398;2024-03-22T03:59:52;97919.72;;;9.22;92.20
12146;BME280;6136;47.032;15.398;2024-03-22T04:02:18;97922.28;;;9.24;93.13
12146;BME280;6136;47.032;15.398;2024-03-22T04:04:45;97920.72;;;9.20;91.94
12146;BME280;6136;47.032;15.398;2024-03-22T04:07:13;97913.09;;;9.14;93.01
12146;BME280;6136;47.032;15.398;2024-03-22T04:09:40;97911.38;;;9.13;91.93
12146;BME280;6136;47.032;15.398;2024-03-22T04:12:06;97916.66;;;9.13;91.85
12146;BME280;6136;47.032;15.398;2024-03-22T04:14:33;97912.25;;;9.13;91.17
12146;BME280;6136;47.032;15.398;2024-03-22T04:17:00;97910.78;;;9.08;91.66
12146;BME280;6136;47.032;15.398;2024-03-22T04:19:27;97915.44;;;9.03;92.68
12146;BME280;6136;47.032;15.398;2024-03-22T04:21:53;97922.03;;;8.94;92.54
12146;BME280;6136;47.032;15.398;2024-03-22T04:24:22;97914.19;;;8.92;93.49
12146;BME280;6136;47.032;15.398;2024-03-22T04:26:48;97917.19;;;8.85;94.22
12146;BME280;6136;47.032;15.398;2024-03-22T04:29:15;97906.16;;;8.77;94.67
12146;BME280;6136;47.032;15.398;2024-03-22T04:31:41;97910.03;;;8.70;94.28
12146;BME280;6136;47.032;15.398;2024-03-22T04:34:09;97907.38;;;8.70;92.90
12146;BME280;6136;47.032;15.398;2024-03-22T04:36:36;97909.25;;;8.68;95.92
12146;BME280;6136;47.032;15.398;2024-03-22T04:39:03;97911.34;;;8.61;96.15
12146;BME280;6136;47.032;15.398;2024-03-22T04:41:32;97911.94;;;8.49;95.13
12146;BME280;6136;47.032;15.398;2024-03-22T04:43:59;97922.63;;;8.46;97.23
12146;BME280;6136;47.032;15.398;2024-03-22T04:46:26;97919.31;;;8.42;96.44
12146;BME280;6136;47.032;15.398;2024-03-22T04:48:52;97923.72;;;8.42;97.37
12146;BME280;6136;47.032;15.398;2024-03-22T04:51:20;97919.44;;;8.39;96.93
12146;BME280;6136;47.032;15.398;2024-03-22T04:53:47;97925.88;;;8.34;97.44
12146;BME280;6136;47.032;15.398;2024-03-22T04:56:13;97922.56;;;8.29;96.54
12146;BME280;6136;47.032;15.398;2024-03-22T04:58:42;97936.69;;;8.28;96.58
12146;BME280;6136;47.032;15.398;2024-03-22T05:01:08;97919.16;;;8.27;97.66
12146;BME280;6136;47.032;15.398;2024-03-22T05:03:37;97925.63;;;8.19;96.91
12146;BME280;6136;47.032;15.398;2024-03-22T05:06:03;97925.00;;;8.14;97.58
12146;BME280;6136;47.032;15.398;2024-03-22T05:08:32;97927.00;;;8.09;96.54
12146;BME280;6136;47.032;15.398;2024-03-22T05:10:58;97928.88;;;8.07;97.52
12146;BME280;6136;47.032;15.398;2024-03-22T05:13:25;97925.56;;;8.02;98.53
12146;BME280;6136;47.032;15.398;2024-03-22T05:15:53;97924.00;;;7.98;98.63
12146;BME280;6136;47.032;15.398;2024-03-22T05:18:20;97932.84;;;7.97;97.26
12146;BME280;6136;47.032;15.398;2024-03-22T05:20:46;97932.63;;;8.02;99.09
12146;BME280;6136;47.032;15.398;2024-03-22T05:23:14;97928.44;;;7.98;97.27
12146;BME280;6136;47.032;15.398;2024-03-22T05:25:42;97925.50;;;8.04;95.87
12146;BME280;6136;47.032;15.398;2024-03-22T05:28:09;97924.28;;;8.11;94.53
12146;BME280;6136;47.032;15.398;2024-03-22T05:30:35;97919.44;;;8.21;92.54
12146;BME280;6136;47.032;15.398;2024-03-22T05:33:04;97929.84;;;8.24;93.97
12146;BME280;6136;47.032;15.398;2024-03-22T05:35:30;97924.78;;;8.38;91.02
12146;BME280;6136;47.032;15.398;2024-03-22T05:37:58;97928.84;;;8.45;91.01
12146;BME280;6136;47.032;15.398;2024-03-22T05:40:26;97930.28;;;8.52;88.78
12146;BME280;6136;47.032;15.398;2024-03-22T05:42:52;97927.34;;;8.58;88.04
12146;BME280;6136;47.032;15.398;2024-03-22T05:45:19;97931.53;;;8.62;87.46
12146;BME280;6136;47.032;15.398;2024-03-22T05:47:46;97929.63;;;8.66;87.78
12146;BME280;6136;47.032;15.398;2024-03-22T05:50:15;97921.47;;;8.70;85.33
12146;BME280;6136;47.032;15.398;2024-03-22T05:52:41;97918.63;;;8.92;83.64
12146;BME280;6136;47.032;15.398;2024-03-22T05:55:09;97920.25;;;9.12;82.52
12146;BME280;6136;47.032;15.398;2024-03-22T05:57:35;97918.31;;;9.32;81.49
12146;BME280;6136;47.032;15.398;2024-03-22T06:00:03;97908.22;;;9.56;80.61
12146;BME280;6136;47.032;15.398;2024-03-22T06:02:30;97913.78;;;9.85;79.17
12146;BME280;6136;47.032;15.398;2024-03-22T06:04:58;97908.06;;;10.08;78.39
12146;BME280;6136;47.032;15.398;2024-03-22T06:07:26;97913.69;;;10.35;77.26
12146;BME280;6136;47.032;15.398;2024-03-22T06:09:54;97911.19;;;10.63;75.47
12146;BME280;6136;47.032;15.398;2024-03-22T06:12:20;97913.81;;;10.79;74.81
12146;BME280;6136;47.032;15.398;2024-03-22T06:14:48;97915.59;;;10.94;73.24
12146;BME280;6136;47.032;15.398;2024-03-22T06:17:14;97914.97;;;11.19;71.72
12146;BME280;6136;47.032;15.398;2024-03-22T06:19:42;97910.03;;;11.43;71.48
12146;BME280;6136;47.032;15.398;2024-03-22T06:22:08;97899.91;;;11.63;69.48
12146;BME280;6136;47.032;15.398;2024-03-22T06:24:37;97904.59;;;11.88;68.24
12146;BME280;6136;47.032;15.398;2024-03-22T06:27:04;97906.19;;;12.19;67.01
12146;BME280;6136;47.032;15.398;2024-03-22T06:29:33;97905.53;;;12.30;65.40
12146;BME280;6136;47.032;15.398;2024-03-22T06:31:59;97898.53;;;12.56;64.72
12146;BME280;6136;47.032;15.398;2024-03-22T06:34:26;97898.50;;;12.82;62.21
12146;BME280;6136;47.032;15.398;2024-03-22T06:36:52;97897.72;;;12.95;62.01
12146;BME280;6136;47.032;15.398;2024-03-22T06:39:20;97897.84;;;13.06;62.05
12146;BME280;6136;47.032;15.398;2024-03-22T06:41:47;97895.91;;;13.22;59.69
12146;BME280;6136;47.032;15.398;2024-03-22T06:44:15;97894.00;;;13.37;60.26
12146;BME280;6136;47.032;15.398;2024-03-22T06:46:41;97894.88;;;13.63;60.11
12146;BME280;6136;47.032;15.398;2024-03-22T06:49:08;97893.69;;;13.92;58.80
12146;BME280;6136;47.032;15.398;2024-03-22T06:51:34;97888.53;;;14.27;57.45
12146;BME280;6136;47.032;15.398;2024-03-22T06:54:02;97895.94;;;14.47;55.61
12146;BME280;6136;47.032;15.398;2024-03-22T06:56:28;97896.28;;;14.79;54.19
12146;BME280;6136;47.032;15.398;2024-03-22T06:58:57;97892.28;;;15.08;53.43
12146;BME280;6136;47.032;15.398;2024-03-22T07:01:24;97897.28;;;15.48;52.69
12146;BME280;6136;47.032;15.398;2024-03-22T07:03:51;97892.63;;;15.96;51.50
12146;BME280;6136;47.032;15.398;2024-03-22T07:06:18;97889.28;;;17.66;47.75
12146;BME280;6136;47.032;15.398;2024-03-22T07:08:46;97885.72;;;19.45;42.18
12146;BME280;6136;47.032;15.398;2024-03-22T07:11:12;97896.97;;;20.43;40.69
12146;BME280;6136;47.032;15.398;2024-03-22T07:13:39;97889.00;;;21.67;38.05
12146;BME280;6136;47.032;15.398;2024-03-22T07:16:07;97885.31;;;22.46;36.37
12146;BME280;6136;47.032;15.398;2024-03-22T07:18:34;97887.75;;;23.15;34.46
12146;BME280;6136;47.032;15.398;2024-03-22T07:21:01;97883.94;;;23.75;34.73
12146;BME280;6136;47.032;15.398;2024-03-22T07:23:29;97887.72;;;22.99;34.24
12146;BME280;6136;47.032;15.398;2024-03-22T07:25:55;97884.19;;;24.36;32.94
12146;BME280;6136;47.032;15.398;2024-03-22T07:28:23;97882.16;;;24.77;32.09
12146;BME280;6136;47.032;15.398;2024-03-22T07:30:49;97885.38;;;22.96;33.80
12146;BME280;6136;47.032;15.398;2024-03-22T07:33:17;97889.19;;;22.77;34.63
12146;BME280;6136;47.032;15.398;2024-03-22T07:35:44;97891.97;;;22.26;35.06
12146;BME280;6136;47.032;15.398;2024-03-22T07:38:11;97886.03;;;21.96;34.19
12146;BME280;6136;47.032;15.398;2024-03-22T07:40:37;97887.91;;;23.14;33.05
12146;BME280;6136;47.032;15.398;2024-03-22T07:43:05;97886.63;;;23.91;31.47
12146;BME280;6136;47.032;15.398;2024-03-22T07:45:34;97879.97;;;25.35;30.23
12146;BME280;6136;47.032;15.398;2024-03-22T07:48:01;97879.34;;;25.02;28.93
12146;BME280;6136;47.032;15.398;2024-03-22T07:50:29;97870.31;;;26.15;28.16
12146;BME280;6136;47.032;15.398;2024-03-22T07:52:56;97875.41;;;26.33;28.08
12146;BME280;6136;47.032;15.398;2024-03-22T07:55:22;97874.94;;;26.30;28.76
12146;BME280;6136;47.032;15.398;2024-03-22T07:57:50;97868.91;;;26.93;27.73
12146;BME280;6136;47.032;15.398;2024-03-22T08:00:17;97866.34;;;26.18;27.96
12146;BME280;6136;47.032;15.398;2024-03-22T08:02:44;97871.31;;;26.00;28.96
12146;BME280;6136;47.032;15.398;2024-03-22T08:05:10;97865.78;;;25.93;28.35
12146;BME280;6136;47.032;15.398;2024-03-22T08:07:39;97861.78;;;26.77;26.58
12146;BME280;6136;47.032;15.398;2024-03-22T08:10:06;97855.47;;;26.77;27.13
12146;BME280;6136;47.032;15.398;2024-03-22T08:12:33;97853.13;;;26.88;26.61
12146;BME280;6136;47.032;15.398;2024-03-22T08:14:59;97854.75;;;26.68;26.86
12146;BME280;6136;47.032;15.398;2024-03-22T08:17:27;97855.88;;;27.24;26.29
12146;BME280;6136;47.032;15.398;2024-03-22T08:19:53;97850.56;;;28.08;26.27
12146;BME280;6136;47.032;15.398;2024-03-22T08:22:20;97854.72;;;26.83;27.22
12146;BME280;6136;47.032;15.398;2024-03-22T08:24:48;97856.50;;;26.02;28.56
12146;BME280;6136;47.032;15.398;2024-03-22T08:27:15;97847.16;;;26.78;27.16
12146;BME280;6136;47.032;15.398;2024-03-22T08:29:41;97848.59;;;26.59;27.81
12146;BME280;6136;47.032;15.398;2024-03-22T08:32:09;97847.06;;;26.72;28.10
12146;BME280;6136;47.032;15.398;2024-03-22T08:34:35;97852.59;;;26.19;28.79
12146;BME280;6136;47.032;15.398;2024-03-22T08:37:02;97850.53;;;25.01;29.91
12146;BME280;6136;47.032;15.398;2024-03-22T08:39:29;97846.22;;;25.14;28.22
12146;BME280;6136;47.032;15.398;2024-03-22T08:41:58;97847.28;;;24.35;31.11
12146;BME280;6136;47.032;15.398;2024-03-22T08:44:24;97855.13;;;25.46;29.83
12146;BME280;6136;47.032;15.398;2024-03-22T08:46:52;97843.19;;;26.30;28.23
12146;BME280;6136;47.032;15.398;2024-03-22T08:49:19;97843.31;;;26.73;27.54
12146;BME280;6136;47.032;15.398;2024-03-22T08:51:46;97844.97;;;27.03;25.93
12146;BME280;6136;47.032;15.398;2024-03-22T08:54:14;97837.59;;;28.85;24.90
12146;BME280;6136;47.032;15.398;2024-03-22T08:56:41;97835.00;;;27.74;25.19
12146;BME280;6136;47.032;15.398;2024-03-22T08:59:09;97832.81;;;27.41;25.20
12146;BME280;6136;47.032;15.398;2024-03-22T09:01:36;97823.53;;;28.41;24.97
12146;BME280;6136;47.032;15.398;2024-03-22T09:04:02;97821.41;;;29.45;24.42
12146;BME280;6136;47.032;15.398;2024-03-22T09:06:30;97825.47;;;28.94;23.34
12146;BME280;6136;47.032;15.398;2024-03-22T09:08:57;97824.81;;;28.92;23.42
12146;BME280;6136;47.032;15.398;2024-03-22T09:11:24;97814.59;;;29.21;23.33
12146;BME280;6136;47.032;15.398;2024-03-22T09:13:51;97808.59;;;32.08;20.36
12146;BME280;6136;47.032;15.398;2024-03-22T09:16:21;97804.88;;;31.77;21.89
12146;BME280;6136;47.032;15.398;2024-03-22T09:18:48;97801.63;;;30.22;23.34
12146;BME280;6136;47.032;15.398;2024-03-22T09:21:14;97807.13;;;31.24;21.52
12146;BME280;6136;47.032;15.398;2024-03-22T09:23:41;97804.06;;;31.07;21.48
12146;BME280;6136;47.032;15.398;2024-03-22T09:26:08;97793.22;;;32.25;20.22
12146;BME280;6136;47.032;15.398;2024-03-22T09:28:35;97781.81;;;32.28;19.98
12146;BME280;6136;47.032;15.398;2024-03-22T09:31:04;97777.41;;;30.83;21.33
12146;BME280;6136;47.032;15.398;2024-03-22T09:33:33;97780.91;;;31.10;20.99
12146;BME280;6136;47.032;15.398;2024-03-22T09:35:59;97783.88;;;28.79;22.68
12146;BME280;6136;47.032;15.398;2024-03-22T09:38:27;97780.13;;;29.00;21.60
12146;BME280;6136;47.032;15.398;2024-03-22T09:40:54;97769.72;;;28.15;23.33
12146;BME280;6136;47.032;15.398;2024-03-22T09:43:21;97775.94;;;28.98;22.15
12146;BME280;6136;47.032;15.398;2024-03-22T09:45:49;97773.50;;;27.58;23.68
12146;BME280;6136;47.032;15.398;2024-03-22T09:48:17;97775.84;;;27.40;23.97
12146;BME280;6136;47.032;15.398;2024-03-22T09:50:46;97770.81;;;25.33;26.40
12146;BME280;6136;47.032;15.398;2024-03-22T09:53:18;97777.84;;;24.73;27.10
12146;BME280;6136;47.032;15.398;2024-03-22T09:55:47;97772.66;;;23.21;29.43
12146;BME280;6136;47.032;15.398;2024-03-22T09:58:14;97779.63;;;22.41;30.62
12146;BME280;6136;47.032;15.398;2024-03-22T10:00:42;97765.91;;;22.93;30.36
12146;BME280;6136;47.032;15.398;2024-03-22T10:03:10;97761.66;;;24.18;28.21
12146;BME280;6136;47.032;15.398;2024-03-22T10:05:37;97758.53;;;26.48;26.93
12146;BME280;6136;47.032;15.398;2024-03-22T10:08:06;97750.16;;;29.86;21.74
12146;BME280;6136;47.032;15.398;2024-03-22T10:10:32;97743.44;;;30.08;21.67
12146;BME280;6136;47.032;15.398;2024-03-22T10:13:00;97745.50;;;31.40;20.42
12146;BME280;6136;47.032;15.398;2024-03-22T10:15:27;97737.09;;;32.94;19.90
12146;BME280;6136;47.032;15.398;2024-03-22T10:17:57;97738.69;;;32.17;19.96
12146;BME280;6136;47.032;15.398;2024-03-22T10:20:24;97736.41;;;31.71;19.36
12146;BME280;6136;47.032;15.398;2024-03-22T10:22:56;97736.91;;;30.98;20.67
12146;BME280;6136;47.032;15.398;2024-03-22T10:25:26;97728.44;;;32.79;19.37
12146;BME280;6136;47.032;15.398;2024-03-22T10:27:54;97718.22;;;31.27;19.86
12146;BME280;6136;47.032;15.398;2024-03-22T10:30:22;97718.84;;;31.78;20.35
12146;BME280;6136;47.032;15.398;2024-03-22T10:32:50;97708.59;;;33.06;18.23
12146;BME280;6136;47.032;15.398;2024-03-22T10:35:18;97704.66;;;33.67;17.11
12146;BME280;6136;47.032;15.398;2024-03-22T10:37:44;97715.41;;;33.04;17.79
12146;BME280;6136;47.032;15.398;2024-03-22T10:40:12;97716.75;;;32.35;18.10
12146;BME280;6136;47.032;15.398;2024-03-22T10:42:42;97700.22;;;34.13;16.28
12146;BME280;6136;47.032;15.398;2024-03-22T10:45:12;97702.97;;;34.13;17.06
12146;BME280;6136;47.032;15.398;2024-03-22T10:47:39;97687.59;;;33.77;18.40
12146;BME280;6136;47.032;15.398;2024-03-22T10:50:08;97688.84;;;33.28;17.94
12146;BME280;6136;47.032;15.398;2024-03-22T10:52:38;97698.53;;;34.75;16.15
12146;BME280;6136;47.032;15.398;2024-03-22T10:55:08;97692.44;;;33.51;18.15
12146;BME280;6136;47.032;15.398;2024-03-22T10:57:37;97684.50;;;32.79;18.91
12146;BME280;6136;47.032;15.398;2024-03-22T11:00:10;97675.13;;;33.39;17.73
12146;BME280;6136;47.032;15.398;2024-03-22T11:02:36;97679.63;;;33.22;17.47
12146;BME280;6136;47.032;15.398;2024-03-22T11:05:04;97676.09;;;33.33;17.57
12146;BME280;6136;47.032;15.398;2024-03-22T11:07:31;97669.19;;;32.05;17.96
12146;BME280;6136;47.032;15.398;2024-03-22T11:10:01;97661.91;;;32.47;17.48
12146;BME280;6136;47.032;15.398;2024-03-22T11:12:29;97653.44;;;32.00;18.34
12146;BME280;6136;47.032;15.398;2024-03-22T11:14:59;97654.59;;;29.20;19.79
12146;BME280;6136;47.032;15.398;2024-03-22T11:17:27;97654.75;;;27.98;21.86
12146;BME280;6136;47.032;15.398;2024-03-22T11:19:57;97656.41;;;28.53;22.20
12146;BME280;6136;47.032;15.398;2024-03-22T11:22:25;97644.09;;;29.30;20.15
12146;BME280;6136;47.032;15.398;2024-03-22T11:24:52;97650.16;;;28.05;21.37
12146;BME280;6136;47.032;15.398;2024-03-22T11:27:18;97634.56;;;27.17;23.07
12146;BME280;6136;47.032;15.398;2024-03-22T11:29:46;97638.59;;;28.57;23.23
12146;BME280;6136;47.032;15.398;2024-03-22T11:32:14;97627.78;;;28.16;22.22
12146;BME280;6136;47.032;15.398;2024-03-22T11:34:43;97628.28;;;27.17;23.59
12146;BME280;6136;47.032;15.398;2024-03-22T11:37:10;97633.66;;;26.25;25.23
12146;BME280;6136;47.032;15.398;2024-03-22T11:39:37;97628.06;;;26.12;24.07
12146;BME280;6136;47.032;15.398;2024-03-22T11:42:05;97627.38;;;25.30;25.16
12146;BME280;6136;47.032;15.398;2024-03-22T11:44:33;97614.66;;;25.45;24.58
12146;BME280;6136;47.032;15.398;2024-03-22T11:47:02;97612.59;;;25.18;24.60
12146;BME280;6136;47.032;15.398;2024-03-22T11:49:30;97604.06;;;25.21;24.38
12146;BME280;6136;47.032;15.398;2024-03-22T11:51:57;97610.47;;;24.90;26.19
12146;BME280;6136;47.032;15.398;2024-03-22T11:54:25;97598.59;;;24.54;25.66
12146;BME280;6136;47.032;15.398;2024-03-22T11:56:51;97598.53;;;24.62;26.21
12146;BME280;6136;47.032;15.398;2024-03-22T11:59:19;97602.16;;;24.92;25.95
12146;BME280;6136;47.032;15.398;2024-03-22T12:01:46;97586.66;;;24.63;26.54
12146;BME280;6136;47.032;15.398;2024-03-22T12:04:13;97585.28;;;25.63;26.24
12146;BME280;6136;47.032;15.398;2024-03-22T12:06:41;97585.50;;;25.98;25.93
12146;BME280;6136;47.032;15.398;2024-03-22T12:09:10;97573.97;;;26.32;25.07
12146;BME280;6136;47.032;15.398;2024-03-22T12:11:38;97577.13;;;26.56;25.14
12146;BME280;6136;47.032;15.398;2024-03-22T12:14:06;97584.94;;;25.87;25.01
12146;BME280;6136;47.032;15.398;2024-03-22T12:16:32;97570.56;;;26.72;25.17
12146;BME280;6136;47.032;15.398;2024-03-22T12:18:59;97563.25;;;26.09;24.38
12146;BME280;6136;47.032;15.398;2024-03-22T12:21:26;97572.16;;;27.50;24.58
12146;BME280;6136;47.032;15.398;2024-03-22T12:23:53;97577.72;;;27.35;22.61
12146;BME280;6136;47.032;15.398;2024-03-22T12:26:21;97560.78;;;27.81;23.05
12146;BME280;6136;47.032;15.398;2024-03-22T12:28:49;97557.19;;;28.28;22.75
12146;BME280;6136;47.032;15.398;2024-03-22T12:31:17;97567.00;;;27.62;22.87
12146;BME280;6136;47.032;15.398;2024-03-22T12:33:45;97554.16;;;27.49;24.39
12146;BME280;6136;47.032;15.398;2024-03-22T12:36:11;97559.56;;;27.08;23.74
12146;BME280;6136;47.032;15.398;2024-03-22T12:38:38;97549.25;;;28.53;22.45
12146;BME280;6136;47.032;15.398;2024-03-22T12:41:05;97551.19;;;27.44;23.46
12146;BME280;6136;47.032;15.398;2024-03-22T12:43:34;97540.84;;;28.61;21.35
12146;BME280;6136;47.032;15.398;2024-03-22T12:46:01;97539.13;;;27.53;22.60
12146;BME280;6136;47.032;15.398;2024-03-22T12:48:28;97541.88;;;26.70;23.37
12146;BME280;6136;47.032;15.398;2024-03-22T12:50:54;97539.75;;;26.37;23.46
12146;BME280;6136;47.032;15.398;2024-03-22T12:53:22;97532.31;;;25.67;24.04
12146;BME280;6136;47.032;15.398;2024-03-22T12:55:48;97530.97;;;24.75;26.11
12146;BME280;6136;47.032;15.398;2024-03-22T12:58:15;97527.28;;;25.05;24.48
12146;BME280;6136;47.032;15.398;2024-03-22T13:00:43;97524.00;;;24.81;25.15
12146;BME280;6136;47.032;15.398;2024-03-22T13:03:10;97516.53;;;24.30;26.68